Weather at 2 X 4 Ranch Airport

Public forecast

Using degrees Fahrenheit for public forecast. Weather courtesy of forecast.io.

Closest aviation weather report (METAR) to 2 X 4 Ranch Airport

Closest report is Artesia Municipal Airport, 6.2 nm (11.4 km) NW. Retrieved 2021/12/01 13:15 UTC (10 minutes ago):

KATS 011315Z AUTO 24004KT 10SM CLR 01/M06 A3020 RMK AO2

Closest aviation forecast (TAF) to 2 X 4 Ranch Airport

Closest forecast is Cavern City Air Terminal, 27.2 nm (50.4 km) SSE. Retrieved 2021/12/01 12:22 UTC (1 hour ago):

TAF KCNM 011120Z 0112/0212 33006KT P6SM SCT200